createdAt,value
2023-04-20T00:00:11.802Z,11.77
2023-04-20T00:02:45.534Z,11.73
2023-04-20T00:05:16.260Z,11.73
2023-04-20T00:07:48.807Z,11.68
2023-04-20T00:10:22.090Z,11.56
2023-04-20T00:12:52.420Z,11.40
2023-04-20T00:15:22.822Z,11.23
2023-04-20T00:17:55.746Z,11.08
2023-04-20T00:20:26.144Z,10.95
2023-04-20T00:22:56.440Z,10.79
2023-04-20T00:25:26.683Z,10.67
2023-04-20T00:27:56.964Z,10.62
2023-04-20T00:30:27.681Z,10.60
2023-04-20T00:33:00.584Z,10.54
2023-04-20T00:35:31.864Z,10.47
2023-04-20T00:38:02.512Z,10.35
2023-04-20T00:40:33.729Z,10.25
2023-04-20T00:43:12.759Z,10.15
2023-04-20T00:45:43.221Z,10.08
2023-04-20T00:48:17.052Z,10.03
2023-04-20T00:50:48.589Z,9.93
2023-04-20T00:53:19.702Z,9.86
2023-04-20T00:55:54.041Z,9.76
2023-04-20T00:58:24.754Z,9.69
2023-04-20T01:00:55.133Z,9.64
2023-04-20T01:03:28.523Z,9.54
2023-04-20T01:05:59.091Z,9.45
2023-04-20T01:08:30.326Z,9.41
2023-04-20T01:11:00.680Z,9.35
2023-04-20T01:13:31.062Z,9.35
2023-04-20T01:16:05.090Z,9.43
2023-04-20T01:18:47.547Z,9.75
2023-04-20T01:21:19.544Z,9.99
2023-04-20T01:23:53.168Z,10.19
2023-04-20T01:26:25.012Z,10.31
2023-04-20T01:28:55.835Z,10.41
2023-04-20T01:31:26.124Z,10.47
2023-04-20T01:33:56.315Z,10.53
2023-04-20T01:36:27.406Z,10.58
2023-04-20T01:39:00.309Z,10.56
2023-04-20T01:41:30.684Z,10.54
2023-04-20T01:44:02.123Z,10.52
2023-04-20T01:46:32.497Z,10.48
2023-04-20T01:49:03.300Z,10.48
2023-04-20T01:51:38.250Z,10.48
2023-04-20T01:54:11.108Z,10.45
2023-04-20T01:56:41.363Z,10.38
2023-04-20T01:59:14.681Z,10.55
2023-04-20T02:01:45.401Z,10.53
2023-04-20T02:04:15.904Z,10.49
2023-04-20T02:06:46.204Z,10.44
2023-04-20T02:09:19.486Z,10.56
2023-04-20T02:11:50.090Z,10.62
2023-04-20T02:14:20.362Z,10.51
2023-04-20T02:16:50.830Z,10.64
2023-04-20T02:19:21.510Z,10.61
2023-04-20T02:21:54.486Z,10.59
2023-04-20T02:24:27.466Z,10.47
2023-04-20T02:26:57.737Z,10.48
2023-04-20T02:29:28.141Z,10.26
2023-04-20T02:31:58.675Z,10.30
2023-04-20T02:34:29.037Z,10.22
2023-04-20T02:36:59.280Z,10.22
2023-04-20T02:39:32.321Z,10.09
2023-04-20T02:42:03.060Z,10.04
2023-04-20T02:44:33.280Z,9.97
2023-04-20T02:47:03.455Z,9.88
2023-04-20T02:49:33.754Z,9.79
2023-04-20T02:52:04.834Z,9.84
2023-04-20T02:54:37.728Z,9.72
2023-04-20T02:57:08.006Z,9.54
2023-04-20T02:59:38.303Z,9.39
2023-04-20T03:02:08.837Z,9.28
2023-04-20T03:04:39.578Z,9.18
2023-04-20T03:07:10.397Z,9.09
2023-04-20T03:09:43.385Z,9.05
2023-04-20T03:12:13.792Z,8.99
2023-04-20T03:14:44.025Z,8.89
2023-04-20T03:17:14.307Z,8.82
2023-04-20T03:19:44.667Z,8.70
2023-04-20T03:22:15.045Z,8.65
2023-04-20T03:24:48.237Z,8.61
2023-04-20T03:27:18.508Z,8.61
2023-04-20T03:29:49.105Z,8.71
2023-04-20T03:32:19.480Z,8.79
2023-04-20T03:34:57.049Z,8.93
2023-04-20T03:37:27.377Z,9.03
2023-04-20T03:40:00.624Z,8.90
2023-04-20T03:42:30.910Z,8.85
2023-04-20T03:45:01.523Z,8.80
2023-04-20T03:47:31.860Z,8.79
2023-04-20T03:50:02.191Z,8.71
2023-04-20T03:52:32.738Z,8.80
2023-04-20T03:55:05.658Z,8.96
2023-04-20T03:57:36.711Z,9.06
2023-04-20T04:00:07.973Z,9.26
2023-04-20T04:02:38.787Z,9.41
2023-04-20T04:05:10.451Z,9.45
2023-04-20T04:07:40.844Z,9.51
2023-04-20T04:10:17.067Z,9.59
2023-04-20T04:12:47.882Z,9.65
2023-04-20T04:15:19.467Z,9.75
2023-04-20T04:17:49.891Z,9.79
2023-04-20T04:20:20.221Z,9.80
2023-04-20T04:22:52.318Z,9.84
2023-04-20T04:25:25.557Z,9.87
2023-04-20T04:27:55.883Z,9.89
2023-04-20T04:30:26.434Z,9.96
2023-04-20T04:32:57.056Z,10.02
2023-04-20T04:35:30.711Z,10.06
2023-04-20T04:38:01.246Z,10.15
2023-04-20T04:40:34.210Z,10.24
2023-04-20T04:43:05.099Z,10.28
2023-04-20T04:45:35.368Z,10.39
2023-04-20T04:48:08.062Z,10.46
2023-04-20T04:50:39.274Z,10.56
2023-04-20T04:53:09.550Z,10.67
2023-04-20T04:55:42.402Z,10.87
2023-04-20T04:58:14.961Z,11.03
2023-04-20T05:00:45.256Z,11.25
2023-04-20T05:03:16.345Z,11.46
2023-04-20T05:05:47.199Z,12.15
2023-04-20T05:08:17.488Z,13.03
2023-04-20T05:10:50.731Z,13.39
2023-04-20T05:13:21.287Z,13.71
2023-04-20T05:15:51.555Z,14.71
2023-04-20T05:18:24.680Z,15.59
2023-04-20T05:20:55.398Z,16.59
2023-04-20T05:23:25.779Z,17.16
2023-04-20T05:25:58.640Z,17.57
2023-04-20T05:28:28.998Z,17.96
2023-04-20T05:30:59.300Z,18.16
2023-04-20T05:33:29.946Z,18.06
2023-04-20T05:36:00.942Z,18.17
2023-04-20T05:38:31.339Z,18.04
2023-04-20T05:41:04.980Z,18.15
2023-04-20T05:43:35.385Z,18.36
2023-04-20T05:46:05.706Z,18.56
2023-04-20T05:48:36.134Z,18.82
2023-04-20T05:51:06.478Z,18.81
2023-04-20T05:53:36.753Z,19.04
2023-04-20T05:56:10.912Z,19.36
2023-04-20T05:58:41.559Z,19.36
2023-04-20T06:01:11.833Z,19.68
2023-04-20T06:03:42.643Z,19.62
2023-04-20T06:06:14.887Z,19.11
2023-04-20T06:08:46.770Z,19.32
2023-04-20T06:11:19.646Z,19.19
2023-04-20T06:13:49.930Z,19.74
2023-04-20T06:16:22.762Z,19.98
2023-04-20T06:18:53.169Z,20.11
2023-04-20T06:21:24.789Z,20.46
2023-04-20T06:23:55.141Z,20.33
2023-04-20T06:26:28.118Z,19.82
2023-04-20T06:28:58.345Z,20.26
2023-04-20T06:31:28.618Z,20.79
2023-04-20T06:33:59.418Z,20.97
2023-04-20T06:36:30.075Z,21.40
2023-04-20T06:39:00.544Z,21.02
2023-04-20T06:41:33.648Z,21.43
2023-04-20T06:44:03.971Z,20.33
2023-04-20T06:46:34.392Z,20.92
2023-04-20T06:49:07.254Z,20.66
2023-04-20T06:51:37.570Z,20.07
2023-04-20T06:54:08.504Z,20.31
2023-04-20T06:56:41.324Z,19.87
2023-04-20T06:59:11.705Z,19.75
2023-04-20T07:01:42.292Z,21.03
2023-04-20T07:04:12.768Z,21.80
2023-04-20T07:06:43.119Z,20.29
2023-04-20T07:09:13.385Z,20.71
2023-04-20T07:11:49.220Z,20.44
2023-04-20T07:17:43.449Z,20.70
2023-04-20T07:20:14.349Z,20.29
2023-04-20T07:22:44.838Z,20.76
2023-04-20T07:25:18.221Z,19.89
2023-04-20T07:27:51.136Z,19.85
2023-04-20T07:30:23.533Z,19.65
2023-04-20T07:32:54.036Z,19.89
2023-04-20T07:35:25.049Z,19.86
2023-04-20T07:37:55.955Z,20.35
2023-04-20T07:40:26.730Z,20.88
2023-04-20T07:42:59.862Z,20.99
2023-04-20T07:45:30.569Z,21.18
2023-04-20T07:48:01.764Z,20.64
2023-04-20T07:50:32.193Z,20.22
2023-04-20T07:53:02.500Z,19.97
2023-04-20T07:55:33.295Z,21.12
2023-04-20T07:58:06.347Z,20.54
2023-04-20T08:00:36.704Z,21.03
2023-04-20T08:03:08.473Z,21.52
2023-04-20T08:05:40.993Z,21.55
2023-04-20T08:08:11.327Z,21.22
2023-04-20T08:10:41.626Z,21.09
2023-04-20T08:13:15.482Z,20.92
2023-04-20T08:15:46.101Z,21.39
2023-04-20T08:18:16.369Z,20.40
2023-04-20T08:20:46.669Z,21.09
2023-04-20T08:23:19.262Z,20.83
2023-04-20T08:25:52.332Z,20.10
2023-04-20T08:28:33.313Z,19.91
2023-04-20T08:31:04.602Z,19.55
2023-04-20T08:33:34.882Z,19.20
2023-04-20T08:36:05.243Z,19.76
2023-04-20T08:38:37.900Z,20.29
2023-04-20T08:41:08.667Z,21.10
2023-04-20T08:43:41.884Z,20.51
2023-04-20T08:46:12.773Z,21.00
2023-04-20T08:48:48.763Z,20.11
2023-04-20T08:51:20.344Z,20.36
2023-04-20T08:53:50.981Z,20.62
2023-04-20T08:56:21.481Z,19.90
2023-04-20T08:58:54.754Z,20.16
2023-04-20T09:01:35.682Z,20.76
2023-04-20T09:04:19.817Z,21.00
2023-04-20T09:06:52.145Z,21.68
2023-04-20T09:09:23.838Z,21.89
2023-04-20T09:12:07.541Z,22.43
2023-04-20T09:14:49.103Z,22.64
2023-04-20T09:17:20.557Z,22.83
2023-04-20T09:19:56.690Z,22.27
2023-04-20T09:22:33.055Z,21.75
2023-04-20T09:25:14.850Z,21.22
2023-04-20T09:27:45.134Z,21.52
2023-04-20T09:30:18.474Z,21.78
2023-04-20T09:32:50.436Z,21.28
2023-04-20T09:35:26.154Z,21.29
2023-04-20T09:37:57.051Z,21.12
2023-04-20T09:40:28.686Z,21.32
2023-04-20T09:43:03.273Z,21.47
2023-04-20T09:45:36.970Z,21.94
2023-04-20T09:48:08.366Z,22.27
2023-04-20T09:50:48.361Z,22.81
2023-04-20T09:53:21.085Z,22.10
2023-04-20T09:55:52.712Z,22.21
2023-04-20T09:58:24.011Z,21.93
2023-04-20T10:00:57.440Z,21.42
2023-04-20T10:03:29.001Z,21.31
2023-04-20T10:05:59.704Z,21.37
2023-04-20T10:08:30.144Z,21.20
2023-04-20T10:11:00.587Z,21.00
2023-04-20T10:13:36.544Z,21.63
2023-04-20T10:16:21.150Z,21.83
2023-04-20T10:19:02.966Z,21.80
2023-04-20T10:21:33.578Z,21.13
2023-04-20T10:24:04.469Z,20.88
2023-04-20T10:26:41.319Z,21.34
2023-04-20T10:29:12.730Z,21.76
2023-04-20T10:31:46.043Z,21.97
2023-04-20T10:34:16.684Z,22.01
2023-04-20T10:36:47.142Z,22.26
2023-04-20T10:39:20.017Z,23.04
2023-04-20T10:41:58.718Z,23.30
2023-04-20T10:44:29.603Z,22.69
2023-04-20T10:47:02.812Z,22.35
2023-04-20T10:49:33.614Z,21.15
2023-04-20T10:52:03.981Z,20.90
2023-04-20T10:54:40.781Z,21.09
2023-04-20T10:57:11.094Z,21.35
2023-04-20T10:59:42.374Z,21.11
2023-04-20T11:02:18.069Z,21.07
2023-04-20T11:04:48.866Z,20.78
2023-04-20T11:07:20.432Z,20.71
2023-04-20T11:09:56.941Z,20.84
2023-04-20T11:12:27.318Z,20.63
2023-04-20T11:15:03.317Z,20.71
2023-04-20T11:17:41.164Z,20.60
2023-04-20T11:20:15.896Z,21.19
2023-04-20T11:22:47.465Z,21.64
2023-04-20T11:25:17.727Z,22.37
2023-04-20T11:27:48.049Z,22.95
2023-04-20T11:30:21.405Z,22.74
2023-04-20T11:32:59.263Z,21.77
2023-04-20T11:35:29.669Z,21.89
2023-04-20T11:38:01.040Z,21.18
2023-04-20T11:40:32.712Z,21.49
2023-04-20T11:43:05.028Z,21.11
2023-04-20T11:45:36.979Z,21.18
2023-04-20T11:48:13.093Z,20.53
2023-04-20T11:50:43.476Z,20.66
2023-04-20T11:53:15.011Z,21.09
2023-04-20T11:55:45.296Z,20.78
2023-04-20T11:58:15.852Z,21.05
2023-04-20T12:00:46.136Z,20.91
2023-04-20T12:03:19.476Z,20.64
2023-04-20T12:05:51.604Z,21.01
2023-04-20T12:08:22.028Z,20.62
2023-04-20T12:10:57.362Z,20.79
2023-04-20T12:13:29.055Z,21.00
2023-04-20T12:15:59.397Z,21.00
2023-04-20T12:18:35.295Z,21.02
2023-04-20T12:21:05.999Z,20.97
2023-04-20T12:23:37.126Z,20.98
2023-04-20T12:26:07.764Z,20.87
2023-04-20T12:28:38.501Z,20.71
2023-04-20T12:31:08.918Z,20.62
2023-04-20T12:33:41.850Z,20.58
2023-04-20T12:36:12.573Z,20.50
2023-04-20T12:38:42.873Z,20.54
2023-04-20T12:41:17.652Z,20.60
2023-04-20T12:43:50.301Z,20.72
2023-04-20T12:46:21.005Z,20.86
2023-04-20T12:48:53.845Z,21.01
2023-04-20T12:51:27.402Z,21.21
2023-04-20T12:53:57.662Z,21.31
2023-04-20T12:56:28.068Z,21.32
2023-04-20T12:58:58.540Z,21.48
2023-04-20T13:01:28.857Z,21.56
2023-04-20T13:04:01.932Z,21.65
2023-04-20T13:06:32.958Z,21.62
2023-04-20T13:09:04.271Z,21.62
2023-04-20T13:11:34.538Z,21.49
2023-04-20T13:14:05.235Z,21.68
2023-04-20T13:16:35.652Z,21.66
2023-04-20T13:19:08.537Z,21.63
2023-04-20T13:21:39.001Z,21.62
2023-04-20T13:24:09.901Z,21.58
2023-04-20T13:26:42.347Z,21.44
2023-04-20T13:29:12.611Z,21.57
2023-04-20T13:31:43.552Z,21.39
2023-04-20T13:34:16.593Z,21.35
2023-04-20T13:36:47.245Z,21.34
2023-04-20T13:39:20.274Z,21.28
2023-04-20T13:41:51.944Z,21.43
2023-04-20T13:44:22.298Z,21.29
2023-04-20T13:46:52.697Z,21.48
2023-04-20T13:49:25.534Z,21.87
2023-04-20T13:51:56.889Z,22.12
2023-04-20T13:54:27.117Z,22.20
2023-04-20T13:56:58.131Z,22.54
2023-04-20T13:59:28.758Z,22.69
2023-04-20T14:01:59.039Z,22.86
2023-04-20T14:04:32.001Z,22.81
2023-04-20T14:07:02.278Z,22.51
2023-04-20T14:09:34.150Z,22.34
2023-04-20T14:12:04.508Z,21.92
2023-04-20T14:14:34.735Z,21.70
2023-04-20T14:17:05.159Z,21.41
2023-04-20T14:19:38.042Z,20.84
2023-04-20T14:22:08.416Z,20.46
2023-04-20T14:24:38.639Z,20.25
2023-04-20T14:27:08.963Z,19.86
2023-04-20T14:29:39.341Z,19.70
2023-04-20T14:32:09.745Z,19.46
2023-04-20T14:34:42.611Z,19.20
2023-04-20T14:37:12.907Z,19.05
2023-04-20T14:39:43.254Z,18.83
2023-04-20T14:42:14.485Z,18.77
2023-04-20T14:44:48.078Z,18.80
2023-04-20T14:47:18.473Z,18.73
2023-04-20T14:49:51.484Z,18.73
2023-04-20T14:52:21.998Z,18.64
2023-04-20T14:54:52.422Z,18.72
2023-04-20T14:57:22.977Z,18.72
2023-04-20T14:59:53.459Z,18.74
2023-04-20T15:02:23.982Z,18.79
2023-04-20T15:05:01.202Z,18.82
2023-04-20T15:07:31.756Z,18.75
2023-04-20T15:10:02.994Z,18.63
2023-04-20T15:12:33.496Z,18.61
2023-04-20T15:15:03.825Z,18.65
2023-04-20T15:17:34.297Z,18.48
2023-04-20T15:20:08.864Z,18.32
2023-04-20T15:22:40.139Z,18.46
2023-04-20T15:25:11.654Z,18.56
2023-04-20T15:27:46.958Z,18.51
2023-04-20T15:30:17.681Z,18.55
2023-04-20T15:32:48.225Z,18.53
2023-04-20T15:35:21.296Z,18.55
2023-04-20T15:37:51.562Z,18.53
2023-04-20T15:40:22.197Z,18.53
2023-04-20T15:42:52.896Z,18.55
2023-04-20T15:45:23.190Z,18.53
2023-04-20T15:47:54.035Z,18.41
2023-04-20T15:50:27.440Z,18.46
2023-04-20T15:52:57.883Z,18.40
2023-04-20T15:55:34.769Z,18.34
2023-04-20T15:58:05.053Z,18.24
2023-04-20T16:00:35.572Z,18.00
2023-04-20T16:03:08.732Z,18.08
2023-04-20T16:05:41.827Z,18.04
2023-04-20T16:08:13.350Z,18.16
2023-04-20T16:10:44.008Z,18.39
2023-04-20T16:13:14.530Z,18.08
2023-04-20T16:15:45.120Z,18.14
2023-04-20T16:18:27.367Z,18.28
2023-04-20T16:21:00.492Z,18.47
2023-04-20T16:23:31.774Z,18.32
2023-04-20T16:26:02.326Z,18.30
2023-04-20T16:28:33.446Z,18.52
2023-04-20T16:31:04.051Z,18.36
2023-04-20T16:33:34.882Z,18.46
2023-04-20T16:36:08.569Z,18.40
2023-04-20T16:38:38.655Z,18.48
2023-04-20T16:41:10.833Z,18.51
2023-04-20T16:43:41.323Z,18.65
2023-04-20T16:46:16.698Z,18.54
2023-04-20T16:48:47.087Z,18.58
2023-04-20T16:51:20.107Z,18.53
2023-04-20T16:53:50.418Z,18.49
2023-04-20T16:56:22.199Z,18.41
2023-04-20T16:58:52.782Z,18.44
2023-04-20T17:01:23.495Z,18.40
2023-04-20T17:03:54.092Z,18.53
2023-04-20T17:06:27.758Z,18.46
2023-04-20T17:09:05.547Z,18.44
2023-04-20T17:11:40.716Z,18.35
2023-04-20T17:14:13.689Z,18.26
2023-04-20T17:16:44.133Z,18.18
2023-04-20T17:19:14.515Z,18.10
2023-04-20T17:21:47.678Z,18.04
2023-04-20T17:24:21.266Z,18.00
2023-04-20T17:26:52.431Z,17.97
2023-04-20T17:29:22.775Z,17.80
2023-04-20T17:31:53.185Z,17.80
2023-04-20T17:34:24.044Z,17.64
2023-04-20T17:36:59.968Z,17.70
2023-04-20T17:39:30.452Z,17.56
2023-04-20T17:42:01.664Z,17.40
2023-04-20T17:44:31.929Z,17.54
2023-04-20T17:47:21.629Z,17.27
2023-04-20T17:49:52.267Z,17.48
2023-04-20T17:52:27.178Z,17.37
2023-04-20T17:54:57.847Z,17.13
2023-04-20T17:57:28.134Z,17.38
2023-04-20T17:59:58.515Z,17.35
2023-04-20T18:02:29.081Z,17.47
2023-04-20T18:05:01.163Z,17.37
2023-04-20T18:07:34.252Z,17.21
2023-04-20T18:10:05.024Z,17.15
2023-04-20T18:12:35.457Z,17.12
2023-04-20T18:15:08.082Z,17.08
2023-04-20T18:17:41.059Z,16.99
2023-04-20T18:20:12.268Z,16.97
2023-04-20T18:22:50.534Z,16.94
2023-04-20T18:25:24.590Z,16.77
2023-04-20T18:27:54.661Z,16.67
2023-04-20T18:30:25.094Z,16.67
2023-04-20T18:32:55.465Z,16.79
2023-04-20T18:35:28.812Z,16.63
2023-04-20T18:38:01.775Z,16.62
2023-04-20T18:40:32.670Z,16.61
2023-04-20T18:43:03.142Z,16.47
2023-04-20T18:45:34.344Z,16.56
2023-04-20T18:48:06.896Z,16.45
2023-04-20T18:50:37.844Z,16.50
2023-04-20T18:53:10.778Z,16.49
2023-04-20T18:55:43.065Z,16.48
2023-04-20T18:58:13.314Z,16.41
2023-04-20T19:00:49.684Z,16.34
2023-04-20T19:03:20.449Z,16.50
2023-04-20T19:05:53.199Z,16.59
2023-04-20T19:08:28.022Z,16.37
2023-04-20T19:10:59.281Z,16.52
2023-04-20T19:13:29.810Z,16.33
2023-04-20T19:16:01.222Z,16.41
2023-04-20T19:18:31.565Z,16.33
2023-04-20T19:21:04.117Z,16.30
2023-04-20T19:23:37.588Z,16.44
2023-04-20T19:26:07.956Z,16.34
2023-04-20T19:28:38.363Z,16.24
2023-04-20T19:31:09.645Z,16.41
2023-04-20T19:33:40.384Z,16.35
2023-04-20T19:36:10.834Z,16.07
2023-04-20T19:38:43.820Z,16.22
2023-04-20T19:41:14.170Z,16.17
2023-04-20T19:43:44.436Z,16.07
2023-04-20T19:46:16.854Z,16.10
2023-04-20T19:48:47.409Z,15.97
2023-04-20T19:51:19.414Z,16.10
2023-04-20T19:53:52.353Z,16.05
2023-04-20T19:56:22.674Z,15.95
2023-04-20T19:58:53.384Z,15.95
2023-04-20T20:01:26.434Z,16.06
2023-04-20T20:03:57.459Z,15.96
2023-04-20T20:06:27.989Z,15.96
2023-04-20T20:09:01.121Z,15.90
2023-04-20T20:11:31.793Z,15.81
2023-04-20T20:14:02.134Z,15.86
2023-04-20T20:16:32.425Z,15.75
2023-04-20T20:19:02.753Z,15.63
2023-04-20T20:21:32.996Z,15.57
2023-04-20T20:24:06.097Z,15.50
2023-04-20T20:26:39.010Z,15.36
2023-04-20T20:29:09.478Z,15.16
2023-04-20T20:31:39.813Z,15.08
2023-04-20T20:34:10.186Z,14.97
2023-04-20T20:36:42.744Z,14.97
2023-04-20T20:39:16.186Z,14.86
2023-04-20T20:41:46.760Z,14.78
2023-04-20T20:44:18.039Z,14.73
2023-04-20T20:46:48.789Z,14.67
2023-04-20T20:49:19.374Z,14.62
2023-04-20T20:51:49.807Z,14.55
2023-04-20T20:54:22.865Z,14.41
2023-04-20T20:56:53.186Z,14.29
2023-04-20T20:59:26.236Z,14.23
2023-04-20T21:01:56.883Z,14.19
2023-04-20T21:04:27.524Z,14.12
2023-04-20T21:06:57.850Z,13.94
2023-04-20T21:09:30.721Z,13.87
2023-04-20T21:12:01.479Z,13.76
2023-04-20T21:14:31.732Z,13.67
2023-04-20T21:17:02.308Z,13.59
2023-04-20T21:19:32.674Z,13.51
2023-04-20T21:22:02.906Z,13.46
2023-04-20T21:24:35.786Z,13.44
2023-04-20T21:27:06.116Z,13.42
2023-04-20T21:29:36.425Z,13.40
2023-04-20T21:32:07.437Z,13.43
2023-04-20T21:34:37.769Z,13.37
2023-04-20T21:37:11.314Z,13.28
2023-04-20T21:39:44.275Z,13.21
2023-04-20T21:42:14.622Z,13.11
2023-04-20T21:44:45.002Z,13.12
2023-04-20T21:47:15.260Z,13.07
2023-04-20T21:49:45.650Z,13.04
2023-04-20T21:52:15.895Z,12.92
2023-04-20T21:54:49.108Z,12.91
2023-04-20T21:57:19.410Z,12.96
2023-04-20T21:59:49.683Z,12.86
2023-04-20T22:02:20.225Z,12.79
2023-04-20T22:04:51.253Z,12.78
2023-04-20T22:07:24.175Z,12.69
2023-04-20T22:09:57.108Z,12.65
2023-04-20T22:12:39.292Z,12.55
2023-04-20T22:15:15.304Z,12.44
2023-04-20T22:17:48.175Z,12.33
2023-04-20T22:20:20.089Z,12.17
2023-04-20T22:22:50.534Z,12.27
2023-04-20T22:25:24.831Z,12.19
2023-04-20T22:27:55.681Z,12.10
2023-04-20T22:30:26.427Z,12.04
2023-04-20T22:32:56.946Z,11.95
2023-04-20T22:35:27.243Z,11.84
2023-04-20T22:37:57.492Z,11.78
2023-04-20T22:40:30.710Z,11.73
2023-04-20T22:43:00.989Z,11.65
2023-04-20T22:45:31.578Z,11.59
2023-04-20T22:48:01.874Z,11.51
2023-04-20T22:50:32.169Z,11.48
2023-04-20T22:53:02.414Z,11.40
2023-04-20T22:55:35.342Z,11.35
2023-04-20T22:58:05.549Z,11.34
2023-04-20T23:00:36.048Z,11.24
2023-04-20T23:03:06.500Z,11.18
2023-04-20T23:05:37.005Z,11.16
2023-04-20T23:08:07.382Z,11.09
2023-04-20T23:10:41.086Z,11.03
2023-04-20T23:13:17.055Z,10.95
2023-04-20T23:15:47.347Z,10.97
2023-04-20T23:18:17.690Z,10.95
2023-04-20T23:20:48.001Z,10.86
2023-04-20T23:23:18.328Z,10.78
2023-04-20T23:25:51.285Z,10.76
2023-04-20T23:28:21.787Z,10.73
2023-04-20T23:30:55.113Z,10.72
2023-04-20T23:33:25.540Z,10.68
2023-04-20T23:35:55.919Z,10.72
2023-04-20T23:38:29.072Z,10.65
2023-04-20T23:41:04.969Z,10.60
2023-04-20T23:43:35.218Z,10.61
2023-04-20T23:46:05.916Z,10.61
2023-04-20T23:48:36.978Z,10.54
2023-04-20T23:51:08.034Z,10.49
2023-04-20T23:53:39.373Z,10.42
2023-04-20T23:56:12.722Z,10.44
2023-04-20T23:58:43.045Z,10.37
